sensor_id;sensor_type;location;lat;lon;timestamp;temperature;humidity
60313;DHT22;46158;52.850;6.970;2023-02-27T00:02:06;12.30;72.70
60313;DHT22;46158;52.850;6.970;2023-02-27T00:04:32;12.30;72.70
60313;DHT22;46158;52.850;6.970;2023-02-27T00:06:57;12.30;72.70
60313;DHT22;46158;52.850;6.970;2023-02-27T00:09:23;12.30;72.60
60313;DHT22;46158;52.850;6.970;2023-02-27T00:11:49;12.20;72.60
60313;DHT22;46158;52.850;6.970;2023-02-27T00:14:14;12.20;72.60
60313;DHT22;46158;52.850;6.970;2023-02-27T00:16:40;12.20;72.60
60313;DHT22;46158;52.850;6.970;2023-02-27T00:19:05;12.20;72.80
60313;DHT22;46158;52.850;6.970;2023-02-27T00:21:31;12.20;72.80
60313;DHT22;46158;52.850;6.970;2023-02-27T00:23:57;12.20;72.80
60313;DHT22;46158;52.850;6.970;2023-02-27T00:26:22;12.20;72.80
60313;DHT22;46158;52.850;6.970;2023-02-27T00:28:48;12.20;72.90
60313;DHT22;46158;52.850;6.970;2023-02-27T00:31:14;12.20;72.90
60313;DHT22;46158;52.850;6.970;2023-02-27T00:33:39;12.20;72.80
60313;DHT22;46158;52.850;6.970;2023-02-27T00:36:05;12.20;72.80
60313;DHT22;46158;52.850;6.970;2023-02-27T00:38:30;12.20;72.80
60313;DHT22;46158;52.850;6.970;2023-02-27T00:40:57;12.20;72.70
60313;DHT22;46158;52.850;6.970;2023-02-27T00:43:22;12.20;72.70
60313;DHT22;46158;52.850;6.970;2023-02-27T00:45:48;12.20;72.60
60313;DHT22;46158;52.850;6.970;2023-02-27T00:48:13;12.20;72.60
60313;DHT22;46158;52.850;6.970;2023-02-27T00:50:39;12.20;72.60
60313;DHT22;46158;52.850;6.970;2023-02-27T00:53:04;12.20;72.50
60313;DHT22;46158;52.850;6.970;2023-02-27T00:55:30;12.20;72.50
60313;DHT22;46158;52.850;6.970;2023-02-27T00:57:56;12.20;72.60
60313;DHT22;46158;52.850;6.970;2023-02-27T01:00:21;12.20;72.50
60313;DHT22;46158;52.850;6.970;2023-02-27T01:02:47;12.10;72.60
60313;DHT22;46158;52.850;6.970;2023-02-27T01:05:12;12.20;72.60
60313;DHT22;46158;52.850;6.970;2023-02-27T01:07:38;12.10;72.50
60313;DHT22;46158;52.850;6.970;2023-02-27T01:10:04;12.20;72.60
60313;DHT22;46158;52.850;6.970;2023-02-27T01:12:30;12.10;72.50
60313;DHT22;46158;52.850;6.970;2023-02-27T01:14:56;12.10;72.40
60313;DHT22;46158;52.850;6.970;2023-02-27T01:17:21;12.10;72.40
60313;DHT22;46158;52.850;6.970;2023-02-27T01:19:47;12.10;72.40
60313;DHT22;46158;52.850;6.970;2023-02-27T01:22:12;12.10;72.30
60313;DHT22;46158;52.850;6.970;2023-02-27T01:24:38;12.10;72.30
60313;DHT22;46158;52.850;6.970;2023-02-27T01:27:04;12.10;72.30
60313;DHT22;46158;52.850;6.970;2023-02-27T01:29:29;12.10;72.30
60313;DHT22;46158;52.850;6.970;2023-02-27T01:31:56;12.10;72.30
60313;DHT22;46158;52.850;6.970;2023-02-27T01:34:21;12.10;72.30
60313;DHT22;46158;52.850;6.970;2023-02-27T01:36:47;12.10;72.30
60313;DHT22;46158;52.850;6.970;2023-02-27T01:39:13;12.00;72.30
60313;DHT22;46158;52.850;6.970;2023-02-27T01:41:38;12.10;72.40
60313;DHT22;46158;52.850;6.970;2023-02-27T01:44:05;12.10;72.40
60313;DHT22;46158;52.850;6.970;2023-02-27T01:46:31;12.00;72.30
60313;DHT22;46158;52.850;6.970;2023-02-27T01:48:58;12.00;72.30
60313;DHT22;46158;52.850;6.970;2023-02-27T01:51:25;12.00;72.40
60313;DHT22;46158;52.850;6.970;2023-02-27T01:53:51;12.00;72.50
60313;DHT22;46158;52.850;6.970;2023-02-27T01:56:19;12.00;72.50
60313;DHT22;46158;52.850;6.970;2023-02-27T01:58:46;12.00;72.50
60313;DHT22;46158;52.850;6.970;2023-02-27T02:01:13;12.00;72.50
60313;DHT22;46158;52.850;6.970;2023-02-27T02:03:50;12.00;72.50
60313;DHT22;46158;52.850;6.970;2023-02-27T02:06:16;12.00;72.60
60313;DHT22;46158;52.850;6.970;2023-02-27T02:08:43;12.00;72.50
60313;DHT22;46158;52.850;6.970;2023-02-27T02:11:09;12.00;72.50
60313;DHT22;46158;52.850;6.970;2023-02-27T02:13:37;11.90;72.40
60313;DHT22;46158;52.850;6.970;2023-02-27T02:16:14;12.00;72.50
60313;DHT22;46158;52.850;6.970;2023-02-27T02:19:00;12.00;72.50
60313;DHT22;46158;52.850;6.970;2023-02-27T02:26:34;12.00;72.60
60313;DHT22;46158;52.850;6.970;2023-02-27T02:42:14;11.90;72.60
60313;DHT22;46158;52.850;6.970;2023-02-27T02:57:26;11.90;72.70
60313;DHT22;46158;52.850;6.970;2023-02-27T03:02:20;11.90;72.70
60313;DHT22;46158;52.850;6.970;2023-02-27T03:05:07;11.90;72.80
60313;DHT22;46158;52.850;6.970;2023-02-27T03:10:02;11.90;72.80
60313;DHT22;46158;52.850;6.970;2023-02-27T03:12:29;11.90;72.80
60313;DHT22;46158;52.850;6.970;2023-02-27T03:17:27;11.90;72.80
60313;DHT22;46158;52.850;6.970;2023-02-27T03:19:55;11.90;72.70
60313;DHT22;46158;52.850;6.970;2023-02-27T03:22:23;11.90;72.70
60313;DHT22;46158;52.850;6.970;2023-02-27T03:24:50;11.90;72.70
60313;DHT22;46158;52.850;6.970;2023-02-27T03:27:17;11.90;72.70
60313;DHT22;46158;52.850;6.970;2023-02-27T03:32:20;11.90;72.80
60313;DHT22;46158;52.850;6.970;2023-02-27T03:34:47;11.90;72.80
60313;DHT22;46158;52.850;6.970;2023-02-27T03:37:19;11.90;72.80
60313;DHT22;46158;52.850;6.970;2023-02-27T03:40:02;11.90;72.80
60313;DHT22;46158;52.850;6.970;2023-02-27T03:45:07;11.90;72.80
60313;DHT22;46158;52.850;6.970;2023-02-27T03:47:37;11.90;72.80
60313;DHT22;46158;52.850;6.970;2023-02-27T03:50:02;11.90;72.70
60313;DHT22;46158;52.850;6.970;2023-02-27T03:52:28;11.90;72.80
60313;DHT22;46158;52.850;6.970;2023-02-27T03:54:56;11.90;72.70
60313;DHT22;46158;52.850;6.970;2023-02-27T03:57:22;11.90;72.70
60313;DHT22;46158;52.850;6.970;2023-02-27T03:59:47;11.90;72.80
60313;DHT22;46158;52.850;6.970;2023-02-27T04:02:13;11.90;72.70
60313;DHT22;46158;52.850;6.970;2023-02-27T04:04:40;11.90;72.80
60313;DHT22;46158;52.850;6.970;2023-02-27T04:07:08;11.90;72.70
60313;DHT22;46158;52.850;6.970;2023-02-27T04:22:59;12.00;72.70
60313;DHT22;46158;52.850;6.970;2023-02-27T04:30:44;12.10;72.60
60313;DHT22;46158;52.850;6.970;2023-02-27T04:35:46;12.10;72.60
60313;DHT22;46158;52.850;6.970;2023-02-27T04:41:25;12.20;72.60
60313;DHT22;46158;52.850;6.970;2023-02-27T04:43:31;12.20;72.40
60313;DHT22;46158;52.850;6.970;2023-02-27T04:45:59;12.20;72.40
60313;DHT22;46158;52.850;6.970;2023-02-27T04:48:27;12.20;72.30
60313;DHT22;46158;52.850;6.970;2023-02-27T04:50:56;12.30;72.30
60313;DHT22;46158;52.850;6.970;2023-02-27T04:54:05;12.30;72.30
60313;DHT22;46158;52.850;6.970;2023-02-27T04:56:13;12.30;72.20
60313;DHT22;46158;52.850;6.970;2023-02-27T04:58:43;12.30;72.10
60313;DHT22;46158;52.850;6.970;2023-02-27T05:01:16;12.40;72.10
60313;DHT22;46158;52.850;6.970;2023-02-27T05:03:44;12.40;72.00
60313;DHT22;46158;52.850;6.970;2023-02-27T05:06:12;12.40;72.00
60313;DHT22;46158;52.850;6.970;2023-02-27T05:13:43;12.40;72.00
60313;DHT22;46158;52.850;6.970;2023-02-27T05:16:18;12.40;72.00
60313;DHT22;46158;52.850;6.970;2023-02-27T05:18:46;12.40;72.10
60313;DHT22;46158;52.850;6.970;2023-02-27T05:26:26;12.30;72.30
60313;DHT22;46158;52.850;6.970;2023-02-27T05:34:08;12.30;72.80
60313;DHT22;46158;52.850;6.970;2023-02-27T05:36:42;12.30;72.90
60313;DHT22;46158;52.850;6.970;2023-02-27T05:39:10;12.30;72.90
60313;DHT22;46158;52.850;6.970;2023-02-27T05:41:38;12.30;73.00
60313;DHT22;46158;52.850;6.970;2023-02-27T05:44:21;12.30;73.00
60313;DHT22;46158;52.850;6.970;2023-02-27T05:46:52;12.30;73.10
60313;DHT22;46158;52.850;6.970;2023-02-27T05:49:21;12.40;73.20
60313;DHT22;46158;52.850;6.970;2023-02-27T05:51:48;12.30;73.30
60313;DHT22;46158;52.850;6.970;2023-02-27T05:54:18;12.30;73.30
60313;DHT22;46158;52.850;6.970;2023-02-27T05:56:46;12.30;73.30
60313;DHT22;46158;52.850;6.970;2023-02-27T05:59:16;12.40;73.40
60313;DHT22;46158;52.850;6.970;2023-02-27T06:01:44;12.40;73.40
60313;DHT22;46158;52.850;6.970;2023-02-27T06:04:09;12.40;73.50
60313;DHT22;46158;52.850;6.970;2023-02-27T06:06:35;12.40;73.40
60313;DHT22;46158;52.850;6.970;2023-02-27T06:09:01;12.40;73.60
60313;DHT22;46158;52.850;6.970;2023-02-27T06:11:27;12.40;73.70
60313;DHT22;46158;52.850;6.970;2023-02-27T06:13:53;12.50;73.60
60313;DHT22;46158;52.850;6.970;2023-02-27T06:16:18;12.50;73.70
60313;DHT22;46158;52.850;6.970;2023-02-27T06:18:44;12.50;73.70
60313;DHT22;46158;52.850;6.970;2023-02-27T06:21:11;12.50;73.80
60313;DHT22;46158;52.850;6.970;2023-02-27T06:23:36;12.50;73.80
60313;DHT22;46158;52.850;6.970;2023-02-27T06:26:02;12.50;73.60
60313;DHT22;46158;52.850;6.970;2023-02-27T06:28:27;12.50;73.60
60313;DHT22;46158;52.850;6.970;2023-02-27T06:30:53;12.50;73.70
60313;DHT22;46158;52.850;6.970;2023-02-27T06:33:19;12.50;73.60
60313;DHT22;46158;52.850;6.970;2023-02-27T06:35:47;12.50;73.70
60313;DHT22;46158;52.850;6.970;2023-02-27T06:38:13;12.50;73.70
60313;DHT22;46158;52.850;6.970;2023-02-27T06:40:42;12.50;73.70
60313;DHT22;46158;52.850;6.970;2023-02-27T06:43:08;12.50;73.80
60313;DHT22;46158;52.850;6.970;2023-02-27T06:45:33;12.50;73.80
60313;DHT22;46158;52.850;6.970;2023-02-27T06:47:59;12.50;73.70
60313;DHT22;46158;52.850;6.970;2023-02-27T06:50:25;12.50;73.80
60313;DHT22;46158;52.850;6.970;2023-02-27T06:52:50;12.50;73.80
60313;DHT22;46158;52.850;6.970;2023-02-27T06:55:16;12.60;73.90
60313;DHT22;46158;52.850;6.970;2023-02-27T06:57:45;12.60;73.90
60313;DHT22;46158;52.850;6.970;2023-02-27T07:00:11;12.60;73.90
60313;DHT22;46158;52.850;6.970;2023-02-27T07:02:37;12.60;73.90
60313;DHT22;46158;52.850;6.970;2023-02-27T07:05:03;12.60;73.90
60313;DHT22;46158;52.850;6.970;2023-02-27T07:07:28;12.60;73.90
60313;DHT22;46158;52.850;6.970;2023-02-27T07:09:55;12.60;73.90
60313;DHT22;46158;52.850;6.970;2023-02-27T07:12:20;12.60;74.10
60313;DHT22;46158;52.850;6.970;2023-02-27T07:14:46;12.60;74.70
60313;DHT22;46158;52.850;6.970;2023-02-27T07:17:13;12.60;74.00
60313;DHT22;46158;52.850;6.970;2023-02-27T07:19:38;12.70;74.00
60313;DHT22;46158;52.850;6.970;2023-02-27T07:22:04;12.70;74.10
60313;DHT22;46158;52.850;6.970;2023-02-27T07:24:29;12.70;74.10
60313;DHT22;46158;52.850;6.970;2023-02-27T07:26:55;12.70;74.10
60313;DHT22;46158;52.850;6.970;2023-02-27T07:29:21;12.70;74.10
60313;DHT22;46158;52.850;6.970;2023-02-27T07:31:47;12.70;74.10
60313;DHT22;46158;52.850;6.970;2023-02-27T07:34:12;12.70;73.90
60313;DHT22;46158;52.850;6.970;2023-02-27T07:36:39;12.70;73.90
60313;DHT22;46158;52.850;6.970;2023-02-27T07:39:05;12.70;73.90
60313;DHT22;46158;52.850;6.970;2023-02-27T07:41:33;12.70;73.90
60313;DHT22;46158;52.850;6.970;2023-02-27T07:43:58;12.80;74.00
60313;DHT22;46158;52.850;6.970;2023-02-27T07:46:24;12.70;73.90
60313;DHT22;46158;52.850;6.970;2023-02-27T07:48:51;12.80;74.00
60313;DHT22;46158;52.850;6.970;2023-02-27T07:51:17;12.80;74.00
60313;DHT22;46158;52.850;6.970;2023-02-27T07:53:43;12.80;74.00
60313;DHT22;46158;52.850;6.970;2023-02-27T07:56:08;12.80;74.00
60313;DHT22;46158;52.850;6.970;2023-02-27T07:58:34;12.80;74.00
60313;DHT22;46158;52.850;6.970;2023-02-27T08:00:59;12.80;73.90
60313;DHT22;46158;52.850;6.970;2023-02-27T08:03:25;12.80;73.90
60313;DHT22;46158;52.850;6.970;2023-02-27T08:05:51;12.80;73.90
60313;DHT22;46158;52.850;6.970;2023-02-27T08:08:17;12.80;73.90
60313;DHT22;46158;52.850;6.970;2023-02-27T08:10:42;12.90;73.90
60313;DHT22;46158;52.850;6.970;2023-02-27T08:13:08;12.80;73.80
60313;DHT22;46158;52.850;6.970;2023-02-27T08:15:33;12.90;73.90
60313;DHT22;46158;52.850;6.970;2023-02-27T08:17:59;12.90;73.80
60313;DHT22;46158;52.850;6.970;2023-02-27T08:20:24;12.90;73.80
60313;DHT22;46158;52.850;6.970;2023-02-27T08:22:50;12.90;73.70
60313;DHT22;46158;52.850;6.970;2023-02-27T08:25:16;12.90;73.40
60313;DHT22;46158;52.850;6.970;2023-02-27T08:27:42;12.90;73.40
60313;DHT22;46158;52.850;6.970;2023-02-27T08:30:08;12.90;73.60
60313;DHT22;46158;52.850;6.970;2023-02-27T08:32:34;12.90;73.60
60313;DHT22;46158;52.850;6.970;2023-02-27T08:35:00;12.90;73.50
60313;DHT22;46158;52.850;6.970;2023-02-27T08:37:26;12.90;73.60
60313;DHT22;46158;52.850;6.970;2023-02-27T08:39:53;12.90;73.60
60313;DHT22;46158;52.850;6.970;2023-02-27T08:42:18;12.90;73.70
60313;DHT22;46158;52.850;6.970;2023-02-27T08:44:44;12.90;73.80
60313;DHT22;46158;52.850;6.970;2023-02-27T08:47:10;13.00;73.80
60313;DHT22;46158;52.850;6.970;2023-02-27T08:49:35;13.00;73.80
60313;DHT22;46158;52.850;6.970;2023-02-27T08:52:01;12.90;73.80
60313;DHT22;46158;52.850;6.970;2023-02-27T08:54:28;13.00;73.90
60313;DHT22;46158;52.850;6.970;2023-02-27T08:56:53;12.90;73.80
60313;DHT22;46158;52.850;6.970;2023-02-27T08:59:19;13.00;74.00
60313;DHT22;46158;52.850;6.970;2023-02-27T09:01:45;13.10;74.00
60313;DHT22;46158;52.850;6.970;2023-02-27T09:04:10;13.10;73.80
60313;DHT22;46158;52.850;6.970;2023-02-27T09:06:36;13.20;73.90
60313;DHT22;46158;52.850;6.970;2023-02-27T09:09:02;13.20;73.80
60313;DHT22;46158;52.850;6.970;2023-02-27T09:11:28;13.20;74.60
60313;DHT22;46158;52.850;6.970;2023-02-27T09:13:54;13.30;73.50
60313;DHT22;46158;52.850;6.970;2023-02-27T09:16:20;13.20;73.40
60313;DHT22;46158;52.850;6.970;2023-02-27T09:18:46;13.30;73.40
60313;DHT22;46158;52.850;6.970;2023-02-27T09:21:12;13.30;73.50
60313;DHT22;46158;52.850;6.970;2023-02-27T09:23:38;13.30;73.60
60313;DHT22;46158;52.850;6.970;2023-02-27T09:26:03;13.30;73.50
60313;DHT22;46158;52.850;6.970;2023-02-27T09:28:30;13.30;73.50
60313;DHT22;46158;52.850;6.970;2023-02-27T09:30:59;13.30;73.50
60313;DHT22;46158;52.850;6.970;2023-02-27T09:33:24;13.30;73.50
60313;DHT22;46158;52.850;6.970;2023-02-27T09:35:51;13.30;73.60
60313;DHT22;46158;52.850;6.970;2023-02-27T09:38:16;13.30;73.80
60313;DHT22;46158;52.850;6.970;2023-02-27T09:40:42;13.40;73.70
60313;DHT22;46158;52.850;6.970;2023-02-27T09:43:10;13.30;73.60
60313;DHT22;46158;52.850;6.970;2023-02-27T09:45:38;13.30;73.60
60313;DHT22;46158;52.850;6.970;2023-02-27T09:50:40;13.40;73.80
60313;DHT22;46158;52.850;6.970;2023-02-27T09:53:11;13.30;73.70
60313;DHT22;46158;52.850;6.970;2023-02-27T09:55:39;13.30;73.50
60313;DHT22;46158;52.850;6.970;2023-02-27T10:06:25;13.30;73.50
60313;DHT22;46158;52.850;6.970;2023-02-27T10:11:19;13.30;73.60
60313;DHT22;46158;52.850;6.970;2023-02-27T10:16:33;13.40;73.80
60313;DHT22;46158;52.850;6.970;2023-02-27T10:19:00;13.30;73.70
60313;DHT22;46158;52.850;6.970;2023-02-27T10:21:33;13.30;73.70
60313;DHT22;46158;52.850;6.970;2023-02-27T10:24:34;13.40;73.80
60313;DHT22;46158;52.850;6.970;2023-02-27T10:26:53;13.40;73.70
60313;DHT22;46158;52.850;6.970;2023-02-27T10:29:29;13.40;73.70
60313;DHT22;46158;52.850;6.970;2023-02-27T10:31:58;13.40;73.60
60313;DHT22;46158;52.850;6.970;2023-02-27T10:34:26;13.40;73.60
60313;DHT22;46158;52.850;6.970;2023-02-27T10:36:53;13.50;73.80
60313;DHT22;46158;52.850;6.970;2023-02-27T10:39:19;13.40;73.60
60313;DHT22;46158;52.850;6.970;2023-02-27T10:41:46;13.40;73.50
60313;DHT22;46158;52.850;6.970;2023-02-27T10:44:14;13.40;73.50
60313;DHT22;46158;52.850;6.970;2023-02-27T10:46:40;13.40;73.80
60313;DHT22;46158;52.850;6.970;2023-02-27T10:49:11;13.50;73.40
60313;DHT22;46158;52.850;6.970;2023-02-27T10:51:38;13.40;73.30
60313;DHT22;46158;52.850;6.970;2023-02-27T10:54:20;13.50;73.40
60313;DHT22;46158;52.850;6.970;2023-02-27T10:56:48;13.50;73.40
60313;DHT22;46158;52.850;6.970;2023-02-27T10:59:22;13.50;73.40
60313;DHT22;46158;52.850;6.970;2023-02-27T11:04:45;13.50;73.40
60313;DHT22;46158;52.850;6.970;2023-02-27T11:07:11;13.50;73.30
60313;DHT22;46158;52.850;6.970;2023-02-27T11:09:42;13.50;73.30
60313;DHT22;46158;52.850;6.970;2023-02-27T11:12:26;13.50;73.40
60313;DHT22;46158;52.850;6.970;2023-02-27T11:14:55;13.50;73.40
60313;DHT22;46158;52.850;6.970;2023-02-27T11:17:23;13.50;73.40
60313;DHT22;46158;52.850;6.970;2023-02-27T11:19:49;13.50;73.70
60313;DHT22;46158;52.850;6.970;2023-02-27T11:22:16;13.50;73.90
60313;DHT22;46158;52.850;6.970;2023-02-27T11:24:43;13.50;74.10
60313;DHT22;46158;52.850;6.970;2023-02-27T11:27:22;13.50;74.20
60313;DHT22;46158;52.850;6.970;2023-02-27T11:29:58;13.50;74.30
60313;DHT22;46158;52.850;6.970;2023-02-27T11:32:25;13.50;74.20
60313;DHT22;46158;52.850;6.970;2023-02-27T11:34:52;13.60;74.30
60313;DHT22;46158;52.850;6.970;2023-02-27T11:37:34;13.60;74.20
60313;DHT22;46158;52.850;6.970;2023-02-27T11:42:31;13.60;74.30
60313;DHT22;46158;52.850;6.970;2023-02-27T11:45:00;13.60;74.20
60313;DHT22;46158;52.850;6.970;2023-02-27T11:47:36;13.60;74.10
60313;DHT22;46158;52.850;6.970;2023-02-27T11:50:13;13.60;74.00
60313;DHT22;46158;52.850;6.970;2023-02-27T11:55:13;13.60;74.10
60313;DHT22;46158;52.850;6.970;2023-02-27T11:57:40;13.60;74.10
60313;DHT22;46158;52.850;6.970;2023-02-27T12:00:18;13.60;74.20
60313;DHT22;46158;52.850;6.970;2023-02-27T12:03:00;13.60;74.20
60313;DHT22;46158;52.850;6.970;2023-02-27T12:06:11;13.60;74.30
60313;DHT22;46158;52.850;6.970;2023-02-27T12:08:29;13.60;74.40
60313;DHT22;46158;52.850;6.970;2023-02-27T12:10:57;13.60;74.50
60313;DHT22;46158;52.850;6.970;2023-02-27T12:13:25;13.60;74.50
60313;DHT22;46158;52.850;6.970;2023-02-27T12:21:16;13.60;74.60
60313;DHT22;46158;52.850;6.970;2023-02-27T12:23:48;13.60;74.50
60313;DHT22;46158;52.850;6.970;2023-02-27T12:26:20;13.60;74.50
60313;DHT22;46158;52.850;6.970;2023-02-27T12:28:50;13.60;74.60
60313;DHT22;46158;52.850;6.970;2023-02-27T12:33:51;13.60;74.40
60313;DHT22;46158;52.850;6.970;2023-02-27T12:36:19;13.70;74.50
60313;DHT22;46158;52.850;6.970;2023-02-27T12:38:45;13.70;74.70
60313;DHT22;46158;52.850;6.970;2023-02-27T12:43:56;13.70;74.80
60313;DHT22;46158;52.850;6.970;2023-02-27T12:54:00;13.70;74.90
60313;DHT22;46158;52.850;6.970;2023-02-27T12:59:10;13.70;74.80
60313;DHT22;46158;52.850;6.970;2023-02-27T13:07:04;13.70;74.60
60313;DHT22;46158;52.850;6.970;2023-02-27T13:12:46;13.70;74.50
60313;DHT22;46158;52.850;6.970;2023-02-27T13:17:16;13.70;74.50
60313;DHT22;46158;52.850;6.970;2023-02-27T13:19:49;13.70;74.60
60313;DHT22;46158;52.850;6.970;2023-02-27T13:25:00;13.70;74.80
60313;DHT22;46158;52.850;6.970;2023-02-27T13:27:41;13.70;74.70
60313;DHT22;46158;52.850;6.970;2023-02-27T13:35:12;13.70;74.60
60313;DHT22;46158;52.850;6.970;2023-02-27T13:37:53;13.70;74.50
60313;DHT22;46158;52.850;6.970;2023-02-27T13:40:30;13.70;74.40
60313;DHT22;46158;52.850;6.970;2023-02-27T13:42:59;13.70;74.40
60313;DHT22;46158;52.850;6.970;2023-02-27T13:48:55;13.70;74.20
60313;DHT22;46158;52.850;6.970;2023-02-27T13:50:55;13.70;74.00
60313;DHT22;46158;52.850;6.970;2023-02-27T13:53:21;13.70;74.00
60313;DHT22;46158;52.850;6.970;2023-02-27T13:55:50;13.70;74.10
60313;DHT22;46158;52.850;6.970;2023-02-27T13:58:16;13.80;74.20
60313;DHT22;46158;52.850;6.970;2023-02-27T14:00:52;13.80;74.30
60313;DHT22;46158;52.850;6.970;2023-02-27T14:03:19;13.70;74.30
60313;DHT22;46158;52.850;6.970;2023-02-27T14:05:46;13.80;74.40
60313;DHT22;46158;52.850;6.970;2023-02-27T14:08:14;13.80;74.30
60313;DHT22;46158;52.850;6.970;2023-02-27T14:10:49;13.80;74.30
60313;DHT22;46158;52.850;6.970;2023-02-27T14:16:00;13.80;74.30
60313;DHT22;46158;52.850;6.970;2023-02-27T14:21:10;13.80;75.00
60313;DHT22;46158;52.850;6.970;2023-02-27T14:23:37;13.80;74.20
60313;DHT22;46158;52.850;6.970;2023-02-27T14:28:47;13.80;74.30
60313;DHT22;46158;52.850;6.970;2023-02-27T14:31:28;13.80;74.20
60313;DHT22;46158;52.850;6.970;2023-02-27T14:33:55;13.80;74.20
60313;DHT22;46158;52.850;6.970;2023-02-27T14:36:27;13.80;74.30
60313;DHT22;46158;52.850;6.970;2023-02-27T14:38:57;13.80;74.20
60313;DHT22;46158;52.850;6.970;2023-02-27T14:42:07;13.80;74.20
60313;DHT22;46158;52.850;6.970;2023-02-27T14:44:24;13.80;74.20
60313;DHT22;46158;52.850;6.970;2023-02-27T14:46:50;13.90;74.20
60313;DHT22;46158;52.850;6.970;2023-02-27T14:49:20;13.80;74.00
60313;DHT22;46158;52.850;6.970;2023-02-27T14:51:47;13.80;74.00
60313;DHT22;46158;52.850;6.970;2023-02-27T14:54:17;13.80;73.90
60313;DHT22;46158;52.850;6.970;2023-02-27T14:56:56;13.90;73.90
60313;DHT22;46158;52.850;6.970;2023-02-27T14:59:24;13.90;73.80
60313;DHT22;46158;52.850;6.970;2023-02-27T15:01:50;13.90;73.80
60313;DHT22;46158;52.850;6.970;2023-02-27T15:04:16;13.90;73.90
60313;DHT22;46158;52.850;6.970;2023-02-27T15:06:43;13.90;73.90
60313;DHT22;46158;52.850;6.970;2023-02-27T15:09:17;13.90;74.00
60313;DHT22;46158;52.850;6.970;2023-02-27T15:11:45;13.90;73.90
60313;DHT22;46158;52.850;6.970;2023-02-27T15:14:17;13.90;73.90
60313;DHT22;46158;52.850;6.970;2023-02-27T15:16:43;13.90;73.80
60313;DHT22;46158;52.850;6.970;2023-02-27T15:19:16;13.90;73.80
60313;DHT22;46158;52.850;6.970;2023-02-27T15:21:44;13.80;73.80
60313;DHT22;46158;52.850;6.970;2023-02-27T15:24:22;13.90;73.80
60313;DHT22;46158;52.850;6.970;2023-02-27T15:29:31;13.90;73.80
60313;DHT22;46158;52.850;6.970;2023-02-27T15:31:58;13.90;73.70
60313;DHT22;46158;52.850;6.970;2023-02-27T15:34:23;13.90;73.80
60313;DHT22;46158;52.850;6.970;2023-02-27T15:36:50;13.90;73.70
60313;DHT22;46158;52.850;6.970;2023-02-27T15:39:17;13.90;73.70
60313;DHT22;46158;52.850;6.970;2023-02-27T15:41:51;13.80;73.70
60313;DHT22;46158;52.850;6.970;2023-02-27T15:44:18;13.80;73.60
60313;DHT22;46158;52.850;6.970;2023-02-27T15:46:44;13.80;73.50
60313;DHT22;46158;52.850;6.970;2023-02-27T15:49:17;13.90;73.50
60313;DHT22;46158;52.850;6.970;2023-02-27T15:51:48;13.80;73.40
60313;DHT22;46158;52.850;6.970;2023-02-27T15:54:19;13.80;73.30
60313;DHT22;46158;52.850;6.970;2023-02-27T15:56:45;13.80;73.30
60313;DHT22;46158;52.850;6.970;2023-02-27T15:59:12;13.80;73.10
60313;DHT22;46158;52.850;6.970;2023-02-27T16:01:40;13.80;73.00
60313;DHT22;46158;52.850;6.970;2023-02-27T16:04:12;13.80;73.00
60313;DHT22;46158;52.850;6.970;2023-02-27T16:06:39;13.80;73.10
60313;DHT22;46158;52.850;6.970;2023-02-27T16:09:05;13.80;73.10
60313;DHT22;46158;52.850;6.970;2023-02-27T16:11:35;13.80;73.20
60313;DHT22;46158;52.850;6.970;2023-02-27T16:14:04;13.80;73.30
60313;DHT22;46158;52.850;6.970;2023-02-27T16:16:32;13.80;73.30
60313;DHT22;46158;52.850;6.970;2023-02-27T16:19:15;13.70;73.30
60313;DHT22;46158;52.850;6.970;2023-02-27T16:24:32;13.70;73.10
60313;DHT22;46158;52.850;6.970;2023-02-27T16:26:58;13.80;73.10
60313;DHT22;46158;52.850;6.970;2023-02-27T16:29:34;13.80;73.10
60313;DHT22;46158;52.850;6.970;2023-02-27T16:32:00;13.80;73.10
60313;DHT22;46158;52.850;6.970;2023-02-27T16:36:53;13.70;73.20
60313;DHT22;46158;52.850;6.970;2023-02-27T16:39:19;13.80;73.50
60313;DHT22;46158;52.850;6.970;2023-02-27T16:41:45;13.70;73.50
60313;DHT22;46158;52.850;6.970;2023-02-27T16:44:10;13.70;73.60
60313;DHT22;46158;52.850;6.970;2023-02-27T16:46:36;13.70;73.60
60313;DHT22;46158;52.850;6.970;2023-02-27T16:49:08;13.70;73.70
60313;DHT22;46158;52.850;6.970;2023-02-27T16:51:42;13.70;73.80
60313;DHT22;46158;52.850;6.970;2023-02-27T16:54:08;13.70;74.00
60313;DHT22;46158;52.850;6.970;2023-02-27T16:56:35;13.80;74.30
60313;DHT22;46158;52.850;6.970;2023-02-27T16:59:01;13.70;74.50
60313;DHT22;46158;52.850;6.970;2023-02-27T17:01:27;13.70;74.60
60313;DHT22;46158;52.850;6.970;2023-02-27T17:03:52;13.70;74.80
60313;DHT22;46158;52.850;6.970;2023-02-27T17:06:18;13.70;74.80
60313;DHT22;46158;52.850;6.970;2023-02-27T17:08:44;13.70;74.90
60313;DHT22;46158;52.850;6.970;2023-02-27T17:11:09;13.70;75.00
60313;DHT22;46158;52.850;6.970;2023-02-27T17:13:35;13.70;74.90
60313;DHT22;46158;52.850;6.970;2023-02-27T17:16:02;13.80;74.90
60313;DHT22;46158;52.850;6.970;2023-02-27T17:18:28;13.70;74.80
60313;DHT22;46158;52.850;6.970;2023-02-27T17:20:53;13.80;74.90
60313;DHT22;46158;52.850;6.970;2023-02-27T17:23:21;13.80;74.90
60313;DHT22;46158;52.850;6.970;2023-02-27T17:25:47;13.80;75.10
60313;DHT22;46158;52.850;6.970;2023-02-27T17:28:12;13.80;75.20
60313;DHT22;46158;52.850;6.970;2023-02-27T17:30:39;13.80;75.70
60313;DHT22;46158;52.850;6.970;2023-02-27T17:33:05;13.80;75.50
60313;DHT22;46158;52.850;6.970;2023-02-27T17:35:30;13.80;75.40
60313;DHT22;46158;52.850;6.970;2023-02-27T17:37:56;13.80;75.50
60313;DHT22;46158;52.850;6.970;2023-02-27T17:40:24;13.80;75.50
60313;DHT22;46158;52.850;6.970;2023-02-27T17:42:50;13.80;75.60
60313;DHT22;46158;52.850;6.970;2023-02-27T17:45:16;13.90;75.70
60313;DHT22;46158;52.850;6.970;2023-02-27T17:47:46;13.90;75.80
60313;DHT22;46158;52.850;6.970;2023-02-27T17:50:12;13.90;75.90
60313;DHT22;46158;52.850;6.970;2023-02-27T17:52:38;13.90;75.90
60313;DHT22;46158;52.850;6.970;2023-02-27T17:55:05;13.90;76.00
60313;DHT22;46158;52.850;6.970;2023-02-27T17:57:36;13.90;76.00
60313;DHT22;46158;52.850;6.970;2023-02-27T18:00:03;13.90;76.00
60313;DHT22;46158;52.850;6.970;2023-02-27T18:02:29;13.80;75.90
60313;DHT22;46158;52.850;6.970;2023-02-27T18:04:55;13.90;76.00
60313;DHT22;46158;52.850;6.970;2023-02-27T18:07:21;13.90;76.10
60313;DHT22;46158;52.850;6.970;2023-02-27T18:09:46;13.90;76.10
60313;DHT22;46158;52.850;6.970;2023-02-27T18:12:12;13.90;76.10
60313;DHT22;46158;52.850;6.970;2023-02-27T18:14:37;13.90;76.00
60313;DHT22;46158;52.850;6.970;2023-02-27T18:17:03;13.90;76.00
60313;DHT22;46158;52.850;6.970;2023-02-27T18:19:31;13.90;76.00
60313;DHT22;46158;52.850;6.970;2023-02-27T18:21:56;13.90;76.00